sensor_id;sensor_type;location;lat;lon;timestamp;P1;durP1;ratioP1;P2;durP2;ratioP2
25731;SDS011;13585;50.864;4.406;2022-12-18T00:00:31;17.52;;;12.73;;
25731;SDS011;13585;50.864;4.406;2022-12-18T00:03:00;19.00;;;12.98;;
25731;SDS011;13585;50.864;4.406;2022-12-18T00:05:30;17.65;;;12.68;;
25731;SDS011;13585;50.864;4.406;2022-12-18T00:08:07;17.75;;;12.23;;
25731;SDS011;13585;50.864;4.406;2022-12-18T00:10:33;17.13;;;12.40;;
25731;SDS011;13585;50.864;4.406;2022-12-18T00:13:01;17.50;;;12.32;;
25731;SDS011;13585;50.864;4.406;2022-12-18T00:15:29;16.73;;;12.02;;
25731;SDS011;13585;50.864;4.406;2022-12-18T00:18:11;17.02;;;12.30;;
25731;SDS011;13585;50.864;4.406;2022-12-18T00:20:38;17.67;;;12.48;;
25731;SDS011;13585;50.864;4.406;2022-12-18T00:23:06;17.17;;;12.68;;
25731;SDS011;13585;50.864;4.406;2022-12-18T00:25:34;18.63;;;12.80;;
25731;SDS011;13585;50.864;4.406;2022-12-18T00:28:32;18.63;;;13.15;;
25731;SDS011;13585;50.864;4.406;2022-12-18T00:31:32;16.85;;;12.45;;
25731;SDS011;13585;50.864;4.406;2022-12-18T00:34:06;18.55;;;12.45;;
25731;SDS011;13585;50.864;4.406;2022-12-18T00:36:53;16.42;;;12.13;;
25731;SDS011;13585;50.864;4.406;2022-12-18T00:39:19;16.27;;;12.10;;
25731;SDS011;13585;50.864;4.406;2022-12-18T00:41:47;18.55;;;12.88;;
25731;SDS011;13585;50.864;4.406;2022-12-18T00:44:33;15.82;;;11.20;;
25731;SDS011;13585;50.864;4.406;2022-12-18T00:47:01;17.77;;;12.57;;
25731;SDS011;13585;50.864;4.406;2022-12-18T00:49:27;15.82;;;12.15;;
25731;SDS011;13585;50.864;4.406;2022-12-18T01:03:35;16.60;;;12.18;;
25731;SDS011;13585;50.864;4.406;2022-12-18T01:06:11;16.50;;;12.65;;
25731;SDS011;13585;50.864;4.406;2022-12-18T01:08:38;16.40;;;11.63;;
25731;SDS011;13585;50.864;4.406;2022-12-18T01:11:10;18.05;;;12.13;;
25731;SDS011;13585;50.864;4.406;2022-12-18T01:14:30;15.85;;;11.68;;
25731;SDS011;13585;50.864;4.406;2022-12-18T01:17:02;17.02;;;12.18;;
25731;SDS011;13585;50.864;4.406;2022-12-18T01:19:29;15.13;;;11.65;;
25731;SDS011;13585;50.864;4.406;2022-12-18T01:22:15;17.38;;;11.95;;
25731;SDS011;13585;50.864;4.406;2022-12-18T01:35:07;14.48;;;10.75;;
25731;SDS011;13585;50.864;4.406;2022-12-18T01:37:34;16.52;;;11.13;;
25731;SDS011;13585;50.864;4.406;2022-12-18T01:40:22;15.13;;;10.50;;
25731;SDS011;13585;50.864;4.406;2022-12-18T01:42:52;14.80;;;11.07;;
25731;SDS011;13585;50.864;4.406;2022-12-18T01:45:47;16.65;;;11.65;;
25731;SDS011;13585;50.864;4.406;2022-12-18T01:48:22;14.60;;;10.73;;
25731;SDS011;13585;50.864;4.406;2022-12-18T01:50:54;15.00;;;11.40;;
25731;SDS011;13585;50.864;4.406;2022-12-18T01:53:39;13.98;;;10.05;;
25731;SDS011;13585;50.864;4.406;2022-12-18T02:00:22;13.98;;;10.27;;
25731;SDS011;13585;50.864;4.406;2022-12-18T02:03:15;13.93;;;10.02;;
25731;SDS011;13585;50.864;4.406;2022-12-18T02:06:51;14.88;;;10.60;;
25731;SDS011;13585;50.864;4.406;2022-12-18T02:10:20;14.55;;;10.20;;
25731;SDS011;13585;50.864;4.406;2022-12-18T02:27:05;13.13;;;9.70;;
25731;SDS011;13585;50.864;4.406;2022-12-18T02:34:17;13.23;;;9.63;;
25731;SDS011;13585;50.864;4.406;2022-12-18T02:36:59;12.32;;;9.25;;
25731;SDS011;13585;50.864;4.406;2022-12-18T02:39:37;14.40;;;9.48;;
25731;SDS011;13585;50.864;4.406;2022-12-18T02:53:28;13.20;;;9.57;;
25731;SDS011;13585;50.864;4.406;2022-12-18T02:56:30;12.27;;;9.00;;
25731;SDS011;13585;50.864;4.406;2022-12-18T02:59:32;13.60;;;9.05;;
25731;SDS011;13585;50.864;4.406;2022-12-18T03:02:33;12.45;;;8.73;;
25731;SDS011;13585;50.864;4.406;2022-12-18T03:06:00;13.20;;;9.25;;
25731;SDS011;13585;50.864;4.406;2022-12-18T03:08:34;11.55;;;8.48;;
25731;SDS011;13585;50.864;4.406;2022-12-18T03:11:16;11.90;;;8.32;;
25731;SDS011;13585;50.864;4.406;2022-12-18T03:14:02;11.88;;;8.80;;
25731;SDS011;13585;50.864;4.406;2022-12-18T03:16:39;12.45;;;8.40;;
25731;SDS011;13585;50.864;4.406;2022-12-18T03:19:08;11.07;;;8.15;;
25731;SDS011;13585;50.864;4.406;2022-12-18T03:22:13;11.65;;;8.40;;
25731;SDS011;13585;50.864;4.406;2022-12-18T03:24:44;12.18;;;8.60;;
25731;SDS011;13585;50.864;4.406;2022-12-18T03:27:13;10.73;;;8.00;;
25731;SDS011;13585;50.864;4.406;2022-12-18T03:29:49;10.90;;;8.02;;
25731;SDS011;13585;50.864;4.406;2022-12-18T03:32:43;11.43;;;7.93;;
25731;SDS011;13585;50.864;4.406;2022-12-18T03:35:35;10.98;;;8.02;;
25731;SDS011;13585;50.864;4.406;2022-12-18T03:52:54;9.77;;;7.40;;
25731;SDS011;13585;50.864;4.406;2022-12-18T03:55:24;11.38;;;7.93;;
25731;SDS011;13585;50.864;4.406;2022-12-18T03:57:57;9.25;;;7.13;;
25731;SDS011;13585;50.864;4.406;2022-12-18T04:01:12;9.80;;;6.80;;
25731;SDS011;13585;50.864;4.406;2022-12-18T04:03:42;10.73;;;8.00;;
25731;SDS011;13585;50.864;4.406;2022-12-18T04:06:23;8.98;;;7.30;;
25731;SDS011;13585;50.864;4.406;2022-12-18T04:08:56;11.32;;;7.47;;
25731;SDS011;13585;50.864;4.406;2022-12-18T04:11:23;11.98;;;7.80;;
25731;SDS011;13585;50.864;4.406;2022-12-18T04:13:59;10.45;;;7.30;;
25731;SDS011;13585;50.864;4.406;2022-12-18T04:16:29;8.80;;;7.13;;
25731;SDS011;13585;50.864;4.406;2022-12-18T04:18:56;10.52;;;7.60;;
25731;SDS011;13585;50.864;4.406;2022-12-18T04:21:24;9.38;;;6.72;;
25731;SDS011;13585;50.864;4.406;2022-12-18T04:24:00;8.90;;;6.72;;
25731;SDS011;13585;50.864;4.406;2022-12-18T04:26:27;8.68;;;6.85;;
25731;SDS011;13585;50.864;4.406;2022-12-18T04:29:00;8.73;;;6.78;;
25731;SDS011;13585;50.864;4.406;2022-12-18T04:31:31;10.02;;;7.03;;
25731;SDS011;13585;50.864;4.406;2022-12-18T04:34:45;8.85;;;6.55;;
25731;SDS011;13585;50.864;4.406;2022-12-18T04:37:38;9.68;;;6.78;;
25731;SDS011;13585;50.864;4.406;2022-12-18T04:40:16;9.07;;;6.68;;
25731;SDS011;13585;50.864;4.406;2022-12-18T04:42:44;9.35;;;6.50;;
25731;SDS011;13585;50.864;4.406;2022-12-18T04:45:24;9.73;;;6.68;;
25731;SDS011;13585;50.864;4.406;2022-12-18T04:48:13;9.75;;;6.70;;
25731;SDS011;13585;50.864;4.406;2022-12-18T04:51:08;8.75;;;6.55;;
25731;SDS011;13585;50.864;4.406;2022-12-18T04:53:46;7.85;;;5.55;;
25731;SDS011;13585;50.864;4.406;2022-12-18T04:56:18;9.27;;;6.55;;
25731;SDS011;13585;50.864;4.406;2022-12-18T04:58:55;8.23;;;6.47;;
25731;SDS011;13585;50.864;4.406;2022-12-18T05:01:24;9.75;;;6.68;;
25731;SDS011;13585;50.864;4.406;2022-12-18T05:03:52;8.20;;;6.85;;
25731;SDS011;13585;50.864;4.406;2022-12-18T05:06:19;8.18;;;5.85;;
25731;SDS011;13585;50.864;4.406;2022-12-18T05:08:45;8.15;;;6.45;;
25731;SDS011;13585;50.864;4.406;2022-12-18T05:11:14;8.02;;;5.80;;
25731;SDS011;13585;50.864;4.406;2022-12-18T05:13:45;9.10;;;6.63;;
25731;SDS011;13585;50.864;4.406;2022-12-18T05:16:14;6.68;;;5.47;;
25731;SDS011;13585;50.864;4.406;2022-12-18T05:18:41;8.20;;;5.78;;
25731;SDS011;13585;50.864;4.406;2022-12-18T05:21:08;8.57;;;5.55;;
25731;SDS011;13585;50.864;4.406;2022-12-18T05:23:35;7.53;;;5.90;;
25731;SDS011;13585;50.864;4.406;2022-12-18T05:26:06;7.22;;;5.80;;
25731;SDS011;13585;50.864;4.406;2022-12-18T05:28:37;7.80;;;6.13;;
25731;SDS011;13585;50.864;4.406;2022-12-18T05:36:13;7.97;;;6.00;;
25731;SDS011;13585;50.864;4.406;2022-12-18T05:38:42;7.18;;;5.28;;
25731;SDS011;13585;50.864;4.406;2022-12-18T05:41:07;8.73;;;5.63;;
25731;SDS011;13585;50.864;4.406;2022-12-18T05:43:37;9.75;;;5.80;;
25731;SDS011;13585;50.864;4.406;2022-12-18T05:46:07;7.10;;;5.20;;
25731;SDS011;13585;50.864;4.406;2022-12-18T05:48:55;7.78;;;5.80;;
25731;SDS011;13585;50.864;4.406;2022-12-18T05:51:38;7.63;;;5.38;;
25731;SDS011;13585;50.864;4.406;2022-12-18T05:54:12;7.60;;;5.57;;
25731;SDS011;13585;50.864;4.406;2022-12-18T05:56:40;7.85;;;5.20;;
25731;SDS011;13585;50.864;4.406;2022-12-18T05:59:09;7.45;;;5.50;;
25731;SDS011;13585;50.864;4.406;2022-12-18T06:01:58;7.10;;;4.75;;
25731;SDS011;13585;50.864;4.406;2022-12-18T06:05:04;8.05;;;5.50;;
25731;SDS011;13585;50.864;4.406;2022-12-18T06:08:06;6.15;;;5.13;;
25731;SDS011;13585;50.864;4.406;2022-12-18T06:14:11;6.90;;;4.75;;
25731;SDS011;13585;50.864;4.406;2022-12-18T06:20:58;6.72;;;4.88;;
25731;SDS011;13585;50.864;4.406;2022-12-18T06:23:26;6.68;;;4.60;;
25731;SDS011;13585;50.864;4.406;2022-12-18T06:25:53;6.72;;;4.60;;
25731;SDS011;13585;50.864;4.406;2022-12-18T06:28:36;6.93;;;5.00;;
25731;SDS011;13585;50.864;4.406;2022-12-18T06:31:05;6.88;;;5.07;;
25731;SDS011;13585;50.864;4.406;2022-12-18T06:33:33;7.40;;;4.72;;
25731;SDS011;13585;50.864;4.406;2022-12-18T06:36:00;5.47;;;4.50;;
25731;SDS011;13585;50.864;4.406;2022-12-18T06:38:31;6.43;;;4.93;;
25731;SDS011;13585;50.864;4.406;2022-12-18T06:40:59;6.25;;;4.70;;
25731;SDS011;13585;50.864;4.406;2022-12-18T06:43:26;6.75;;;4.78;;
25731;SDS011;13585;50.864;4.406;2022-12-18T06:45:57;7.82;;;4.93;;
25731;SDS011;13585;50.864;4.406;2022-12-18T06:48:34;6.57;;;4.45;;
25731;SDS011;13585;50.864;4.406;2022-12-18T06:51:04;7.40;;;4.43;;
25731;SDS011;13585;50.864;4.406;2022-12-18T06:53:42;5.60;;;4.38;;
25731;SDS011;13585;50.864;4.406;2022-12-18T06:56:39;6.93;;;4.43;;
25731;SDS011;13585;50.864;4.406;2022-12-18T07:02:59;6.05;;;4.22;;
25731;SDS011;13585;50.864;4.406;2022-12-18T07:06:23;6.00;;;4.38;;
25731;SDS011;13585;50.864;4.406;2022-12-18T07:09:36;4.50;;;3.90;;
25731;SDS011;13585;50.864;4.406;2022-12-18T07:12:33;6.22;;;4.30;;
25731;SDS011;13585;50.864;4.406;2022-12-18T07:18:55;4.43;;;3.60;;
25731;SDS011;13585;50.864;4.406;2022-12-18T07:21:55;4.72;;;3.72;;
25731;SDS011;13585;50.864;4.406;2022-12-18T07:25:24;5.60;;;4.30;;
25731;SDS011;13585;50.864;4.406;2022-12-18T07:45:08;5.70;;;4.03;;
25731;SDS011;13585;50.864;4.406;2022-12-18T07:47:36;5.10;;;4.00;;
25731;SDS011;13585;50.864;4.406;2022-12-18T07:50:12;6.10;;;3.65;;
25731;SDS011;13585;50.864;4.406;2022-12-18T07:52:44;5.43;;;3.70;;
25731;SDS011;13585;50.864;4.406;2022-12-18T07:55:35;5.15;;;3.70;;
25731;SDS011;13585;50.864;4.406;2022-12-18T07:58:07;5.57;;;3.72;;
25731;SDS011;13585;50.864;4.406;2022-12-18T08:00:35;6.15;;;3.78;;
25731;SDS011;13585;50.864;4.406;2022-12-18T08:03:03;4.90;;;3.60;;
25731;SDS011;13585;50.864;4.406;2022-12-18T08:05:31;5.10;;;3.58;;
25731;SDS011;13585;50.864;4.406;2022-12-18T08:08:31;5.00;;;3.47;;
25731;SDS011;13585;50.864;4.406;2022-12-18T08:14:40;4.05;;;3.25;;
25731;SDS011;13585;50.864;4.406;2022-12-18T08:17:46;4.07;;;3.53;;
25731;SDS011;13585;50.864;4.406;2022-12-18T08:20:33;4.30;;;3.20;;
25731;SDS011;13585;50.864;4.406;2022-12-18T08:23:07;5.57;;;3.80;;
25731;SDS011;13585;50.864;4.406;2022-12-18T08:25:34;5.32;;;3.60;;
25731;SDS011;13585;50.864;4.406;2022-12-18T08:28:02;3.97;;;3.00;;
25731;SDS011;13585;50.864;4.406;2022-12-18T08:30:30;4.28;;;3.33;;
25731;SDS011;13585;50.864;4.406;2022-12-18T08:32:58;4.60;;;3.28;;
25731;SDS011;13585;50.864;4.406;2022-12-18T08:46:40;4.30;;;3.38;;
25731;SDS011;13585;50.864;4.406;2022-12-18T08:49:39;4.50;;;2.95;;
25731;SDS011;13585;50.864;4.406;2022-12-18T08:52:08;3.92;;;3.13;;
25731;SDS011;13585;50.864;4.406;2022-12-18T08:55:01;3.88;;;2.90;;
25731;SDS011;13585;50.864;4.406;2022-12-18T08:57:33;3.58;;;2.90;;
25731;SDS011;13585;50.864;4.406;2022-12-18T09:00:23;4.03;;;2.80;;
25731;SDS011;13585;50.864;4.406;2022-12-18T09:03:23;4.80;;;3.03;;
25731;SDS011;13585;50.864;4.406;2022-12-18T09:06:06;4.35;;;2.97;;
25731;SDS011;13585;50.864;4.406;2022-12-18T09:08:59;3.43;;;2.90;;
25731;SDS011;13585;50.864;4.406;2022-12-18T09:11:36;4.60;;;2.75;;
25731;SDS011;13585;50.864;4.406;2022-12-18T09:14:02;4.07;;;3.15;;
25731;SDS011;13585;50.864;4.406;2022-12-18T09:16:33;4.07;;;2.90;;
25731;SDS011;13585;50.864;4.406;2022-12-18T09:19:03;4.00;;;2.88;;
25731;SDS011;13585;50.864;4.406;2022-12-18T09:22:03;4.35;;;3.17;;
25731;SDS011;13585;50.864;4.406;2022-12-18T09:24:41;3.58;;;2.80;;
25731;SDS011;13585;50.864;4.406;2022-12-18T09:28:06;3.63;;;2.90;;
25731;SDS011;13585;50.864;4.406;2022-12-18T09:30:46;3.58;;;2.60;;
25731;SDS011;13585;50.864;4.406;2022-12-18T09:33:26;3.88;;;2.70;;
25731;SDS011;13585;50.864;4.406;2022-12-18T09:39:15;2.95;;;2.35;;
25731;SDS011;13585;50.864;4.406;2022-12-18T09:42:20;4.60;;;2.70;;
25731;SDS011;13585;50.864;4.406;2022-12-18T09:44:58;5.03;;;3.08;;
25731;SDS011;13585;50.864;4.406;2022-12-18T09:47:53;3.40;;;2.70;;
25731;SDS011;13585;50.864;4.406;2022-12-18T09:51:05;3.20;;;2.50;;
25731;SDS011;13585;50.864;4.406;2022-12-18T10:26:45;3.95;;;2.75;;
25731;SDS011;13585;50.864;4.406;2022-12-18T10:29:12;3.47;;;2.72;;
25731;SDS011;13585;50.864;4.406;2022-12-18T10:31:57;4.13;;;2.70;;
25731;SDS011;13585;50.864;4.406;2022-12-18T10:34:37;4.25;;;2.85;;
25731;SDS011;13585;50.864;4.406;2022-12-18T10:37:10;3.38;;;2.58;;
25731;SDS011;13585;50.864;4.406;2022-12-18T10:51:08;3.65;;;2.72;;
25731;SDS011;13585;50.864;4.406;2022-12-18T10:53:39;4.05;;;2.72;;
25731;SDS011;13585;50.864;4.406;2022-12-18T10:56:11;3.20;;;2.50;;
25731;SDS011;13585;50.864;4.406;2022-12-18T10:58:39;4.57;;;2.60;;
25731;SDS011;13585;50.864;4.406;2022-12-18T11:01:08;3.90;;;2.90;;
25731;SDS011;13585;50.864;4.406;2022-12-18T11:15:14;3.22;;;2.47;;
25731;SDS011;13585;50.864;4.406;2022-12-18T11:18:33;4.25;;;2.90;;
25731;SDS011;13585;50.864;4.406;2022-12-18T12:23:15;4.45;;;2.97;;
25731;SDS011;13585;50.864;4.406;2022-12-18T15:03:08;33.58;;;15.65;;
25731;SDS011;13585;50.864;4.406;2022-12-18T15:06:49;27.85;;;13.88;;
25731;SDS011;13585;50.864;4.406;2022-12-18T15:16:26;24.55;;;13.15;;
25731;SDS011;13585;50.864;4.406;2022-12-18T15:29:24;21.88;;;12.05;;
25731;SDS011;13585;50.864;4.406;2022-12-18T15:42:32;24.33;;;12.40;;
25731;SDS011;13585;50.864;4.406;2022-12-18T15:45:17;19.63;;;11.80;;
25731;SDS011;13585;50.864;4.406;2022-12-18T15:47:49;21.80;;;11.82;;
25731;SDS011;13585;50.864;4.406;2022-12-18T15:50:21;21.60;;;11.35;;
25731;SDS011;13585;50.864;4.406;2022-12-18T15:52:58;20.92;;;11.32;;
25731;SDS011;13585;50.864;4.406;2022-12-18T16:14:30;18.98;;;11.05;;
25731;SDS011;13585;50.864;4.406;2022-12-18T16:19:42;18.00;;;9.98;;
25731;SDS011;13585;50.864;4.406;2022-12-18T16:22:15;21.88;;;11.02;;
25731;SDS011;13585;50.864;4.406;2022-12-18T16:40:40;17.15;;;9.25;;
25731;SDS011;13585;50.864;4.406;2022-12-18T17:06:54;16.67;;;8.50;;
25731;SDS011;13585;50.864;4.406;2022-12-18T17:14:58;15.07;;;7.60;;
25731;SDS011;13585;50.864;4.406;2022-12-18T17:17:23;14.15;;;8.85;;
25731;SDS011;13585;50.864;4.406;2022-12-18T17:20:10;13.82;;;8.52;;
25731;SDS011;13585;50.864;4.406;2022-12-18T17:22:39;12.75;;;8.07;;
25731;SDS011;13585;50.864;4.406;2022-12-18T17:25:05;14.57;;;8.43;;
25731;SDS011;13585;50.864;4.406;2022-12-18T17:27:44;11.80;;;7.30;;
25731;SDS011;13585;50.864;4.406;2022-12-18T17:30:56;14.20;;;8.60;;
25731;SDS011;13585;50.864;4.406;2022-12-18T17:33:25;14.02;;;8.60;;
25731;SDS011;13585;50.864;4.406;2022-12-18T17:35:56;14.32;;;8.60;;
25731;SDS011;13585;50.864;4.406;2022-12-18T17:48:57;14.85;;;8.07;;
25731;SDS011;13585;50.864;4.406;2022-12-18T17:51:24;15.00;;;7.43;;
25731;SDS011;13585;50.864;4.406;2022-12-18T17:53:50;14.43;;;7.88;;
25731;SDS011;13585;50.864;4.406;2022-12-18T17:56:22;11.38;;;7.22;;
25731;SDS011;13585;50.864;4.406;2022-12-18T17:58:57;13.63;;;7.70;;
25731;SDS011;13585;50.864;4.406;2022-12-18T18:01:48;13.75;;;8.02;;
25731;SDS011;13585;50.864;4.406;2022-12-18T18:04:18;11.52;;;7.50;;
25731;SDS011;13585;50.864;4.406;2022-12-18T18:06:46;12.38;;;7.68;;
25731;SDS011;13585;50.864;4.406;2022-12-18T18:09:25;13.15;;;7.53;;
25731;SDS011;13585;50.864;4.406;2022-12-18T18:11:51;11.65;;;7.50;;
25731;SDS011;13585;50.864;4.406;2022-12-18T18:17:52;12.65;;;7.57;;
25731;SDS011;13585;50.864;4.406;2022-12-18T18:20:18;10.45;;;6.95;;
25731;SDS011;13585;50.864;4.406;2022-12-18T18:23:04;10.32;;;6.85;;
25731;SDS011;13585;50.864;4.406;2022-12-18T18:25:35;11.88;;;7.55;;
25731;SDS011;13585;50.864;4.406;2022-12-18T18:28:23;11.15;;;7.10;;
25731;SDS011;13585;50.864;4.406;2022-12-18T18:36:27;11.60;;;7.50;;
25731;SDS011;13585;50.864;4.406;2022-12-18T18:38:59;9.45;;;6.50;;
25731;SDS011;13585;50.864;4.406;2022-12-18T18:41:29;11.05;;;7.13;;
25731;SDS011;13585;50.864;4.406;2022-12-18T18:43:59;10.40;;;6.38;;
25731;SDS011;13585;50.864;4.406;2022-12-18T18:46:30;10.50;;;6.53;;
25731;SDS011;13585;50.864;4.406;2022-12-18T18:49:16;10.25;;;6.40;;
25731;SDS011;13585;50.864;4.406;2022-12-18T18:51:41;16.98;;;7.28;;
25731;SDS011;13585;50.864;4.406;2022-12-18T18:57:36;11.30;;;6.88;;
25731;SDS011;13585;50.864;4.406;2022-12-18T19:00:20;11.77;;;7.25;;
25731;SDS011;13585;50.864;4.406;2022-12-18T19:02:48;14.70;;;7.40;;
25731;SDS011;13585;50.864;4.406;2022-12-18T19:30:23;10.73;;;7.18;;
25731;SDS011;13585;50.864;4.406;2022-12-18T19:58:38;10.07;;;6.07;;
25731;SDS011;13585;50.864;4.406;2022-12-18T20:04:56;11.63;;;6.25;;
25731;SDS011;13585;50.864;4.406;2022-12-18T20:07:29;10.48;;;6.30;;
25731;SDS011;13585;50.864;4.406;2022-12-18T20:10:00;9.60;;;6.20;;
25731;SDS011;13585;50.864;4.406;2022-12-18T20:15:59;12.18;;;6.88;;
25731;SDS011;13585;50.864;4.406;2022-12-18T20:18:29;10.45;;;6.18;;
25731;SDS011;13585;50.864;4.406;2022-12-18T20:21:07;10.52;;;6.88;;
25731;SDS011;13585;50.864;4.406;2022-12-18T20:23:48;11.03;;;6.70;;
25731;SDS011;13585;50.864;4.406;2022-12-18T20:29:06;10.05;;;5.75;;
25731;SDS011;13585;50.864;4.406;2022-12-18T20:31:32;10.82;;;6.90;;
25731;SDS011;13585;50.864;4.406;2022-12-18T20:33:58;10.18;;;6.18;;
25731;SDS011;13585;50.864;4.406;2022-12-18T20:36:24;10.15;;;6.07;;
25731;SDS011;13585;50.864;4.406;2022-12-18T20:38:50;9.32;;;5.95;;
25731;SDS011;13585;50.864;4.406;2022-12-18T20:41:18;10.45;;;6.43;;
25731;SDS011;13585;50.864;4.406;2022-12-18T20:43:45;10.23;;;6.05;;
25731;SDS011;13585;50.864;4.406;2022-12-18T20:46:13;9.57;;;5.93;;
25731;SDS011;13585;50.864;4.406;2022-12-18T20:48:40;10.50;;;6.47;;
25731;SDS011;13585;50.864;4.406;2022-12-18T20:51:08;9.07;;;6.18;;
25731;SDS011;13585;50.864;4.406;2022-12-18T20:53:36;9.52;;;6.00;;
25731;SDS011;13585;50.864;4.406;2022-12-18T20:56:05;9.00;;;6.35;;
25731;SDS011;13585;50.864;4.406;2022-12-18T20:58:32;7.50;;;5.43;;
25731;SDS011;13585;50.864;4.406;2022-12-18T21:01:03;7.95;;;5.40;;
25731;SDS011;13585;50.864;4.406;2022-12-18T21:03:33;9.70;;;6.20;;
25731;SDS011;13585;50.864;4.406;2022-12-18T21:05:59;9.05;;;5.82;;
25731;SDS011;13585;50.864;4.406;2022-12-18T21:08:24;11.27;;;6.32;;
25731;SDS011;13585;50.864;4.406;2022-12-18T21:10:50;8.55;;;5.78;;
25731;SDS011;13585;50.864;4.406;2022-12-18T21:13:17;8.50;;;5.85;;
25731;SDS011;13585;50.864;4.406;2022-12-18T21:15:43;9.88;;;6.15;;
25731;SDS011;13585;50.864;4.406;2022-12-18T21:18:08;9.27;;;5.78;;
25731;SDS011;13585;50.864;4.406;2022-12-18T21:20:34;8.38;;;5.68;;
25731;SDS011;13585;50.864;4.406;2022-12-18T21:23:00;8.50;;;6.05;;
25731;SDS011;13585;50.864;4.406;2022-12-18T21:25:30;8.70;;;5.75;;
25731;SDS011;13585;50.864;4.406;2022-12-18T21:27:56;10.48;;;5.72;;
25731;SDS011;13585;50.864;4.406;2022-12-18T21:30:22;8.23;;;5.90;;
25731;SDS011;13585;50.864;4.406;2022-12-18T21:32:47;9.48;;;6.07;;
25731;SDS011;13585;50.864;4.406;2022-12-18T21:35:13;8.82;;;5.43;;
25731;SDS011;13585;50.864;4.406;2022-12-18T21:37:39;7.50;;;5.50;;
25731;SDS011;13585;50.864;4.406;2022-12-18T21:40:05;9.70;;;5.40;;
25731;SDS011;13585;50.864;4.406;2022-12-18T21:42:31;8.98;;;5.05;;
25731;SDS011;13585;50.864;4.406;2022-12-18T21:45:15;7.68;;;5.65;;
25731;SDS011;13585;50.864;4.406;2022-12-18T21:47:41;7.80;;;5.53;;
25731;SDS011;13585;50.864;4.406;2022-12-18T21:50:07;8.73;;;5.97;;
25731;SDS011;13585;50.864;4.406;2022-12-18T21:52:33;7.75;;;5.53;;
25731;SDS011;13585;50.864;4.406;2022-12-18T21:54:59;7.63;;;5.22;;
25731;SDS011;13585;50.864;4.406;2022-12-18T21:57:25;7.35;;;5.32;;
25731;SDS011;13585;50.864;4.406;2022-12-18T21:59:51;8.02;;;5.53;;
25731;SDS011;13585;50.864;4.406;2022-12-18T22:02:18;8.15;;;5.57;;
25731;SDS011;13585;50.864;4.406;2022-12-18T22:04:45;7.93;;;5.38;;
25731;SDS011;13585;50.864;4.406;2022-12-18T22:07:12;7.68;;;5.40;;
25731;SDS011;13585;50.864;4.406;2022-12-18T22:09:39;7.50;;;5.32;;
25731;SDS011;13585;50.864;4.406;2022-12-18T22:12:05;8.95;;;5.80;;
25731;SDS011;13585;50.864;4.406;2022-12-18T22:14:32;9.30;;;5.82;;
25731;SDS011;13585;50.864;4.406;2022-12-18T22:16:58;7.50;;;4.95;;
25731;SDS011;13585;50.864;4.406;2022-12-18T22:19:25;7.15;;;5.18;;
25731;SDS011;13585;50.864;4.406;2022-12-18T22:21:50;8.15;;;5.45;;
25731;SDS011;13585;50.864;4.406;2022-12-18T22:24:17;8.25;;;5.22;;
25731;SDS011;13585;50.864;4.406;2022-12-18T22:26:46;8.77;;;5.28;;
25731;SDS011;13585;50.864;4.406;2022-12-18T22:29:13;6.75;;;4.97;;
25731;SDS011;13585;50.864;4.406;2022-12-18T22:32:00;7.07;;;5.10;;
25731;SDS011;13585;50.864;4.406;2022-12-18T22:34:26;6.30;;;5.28;;
25731;SDS011;13585;50.864;4.406;2022-12-18T22:36:51;8.57;;;5.90;;
25731;SDS011;13585;50.864;4.406;2022-12-18T22:39:18;8.55;;;5.80;;
25731;SDS011;13585;50.864;4.406;2022-12-18T22:41:46;6.93;;;4.90;;
25731;SDS011;13585;50.864;4.406;2022-12-18T22:44:11;6.80;;;4.93;;
25731;SDS011;13585;50.864;4.406;2022-12-18T22:46:38;8.27;;;5.25;;
25731;SDS011;13585;50.864;4.406;2022-12-18T22:49:06;9.70;;;5.80;;
25731;SDS011;13585;50.864;4.406;2022-12-18T22:51:35;7.75;;;5.30;;
25731;SDS011;13585;50.864;4.406;2022-12-18T22:54:01;7.32;;;5.05;;
25731;SDS011;13585;50.864;4.406;2022-12-18T22:56:26;7.60;;;4.93;;
25731;SDS011;13585;50.864;4.406;2022-12-18T22:58:52;6.85;;;4.65;;
25731;SDS011;13585;50.864;4.406;2022-12-18T23:01:19;6.68;;;5.03;;
25731;SDS011;13585;50.864;4.406;2022-12-18T23:03:47;6.47;;;4.90;;
25731;SDS011;13585;50.864;4.406;2022-12-18T23:06:13;5.20;;;4.40;;
25731;SDS011;13585;50.864;4.406;2022-12-18T23:08:39;7.57;;;5.30;;
25731;SDS011;13585;50.864;4.406;2022-12-18T23:11:06;6.75;;;5.00;;
25731;SDS011;13585;50.864;4.406;2022-12-18T23:13:32;6.72;;;4.97;;
25731;SDS011;13585;50.864;4.406;2022-12-18T23:15:58;7.25;;;5.25;;
25731;SDS011;13585;50.864;4.406;2022-12-18T23:18:24;8.27;;;5.65;;
25731;SDS011;13585;50.864;4.406;2022-12-18T23:20:49;6.90;;;5.10;;
25731;SDS011;13585;50.864;4.406;2022-12-18T23:23:15;6.90;;;5.22;;
25731;SDS011;13585;50.864;4.406;2022-12-18T23:25:41;7.47;;;5.03;;
25731;SDS011;13585;50.864;4.406;2022-12-18T23:28:06;6.65;;;4.95;;
25731;SDS011;13585;50.864;4.406;2022-12-18T23:30:32;6.72;;;5.03;;
25731;SDS011;13585;50.864;4.406;2022-12-18T23:32:58;7.78;;;5.40;;
25731;SDS011;13585;50.864;4.406;2022-12-18T23:35:24;8.70;;;5.22;;
25731;SDS011;13585;50.864;4.406;2022-12-18T23:37:49;7.07;;;5.00;;
25731;SDS011;13585;50.864;4.406;2022-12-18T23:40:15;7.35;;;5.20;;
25731;SDS011;13585;50.864;4.406;2022-12-18T23:42:41;9.93;;;5.10;;
25731;SDS011;13585;50.864;4.406;2022-12-18T23:45:06;9.00;;;5.82;;
25731;SDS011;13585;50.864;4.406;2022-12-18T23:47:33;7.95;;;5.40;;
25731;SDS011;13585;50.864;4.406;2022-12-18T23:49:58;8.00;;;5.07;;
25731;SDS011;13585;50.864;4.406;2022-12-18T23:52:24;6.90;;;4.90;;
25731;SDS011;13585;50.864;4.406;2022-12-18T23:54:50;6.95;;;5.07;;
25731;SDS011;13585;50.864;4.406;2022-12-18T23:57:16;7.43;;;5.20;;
25731;SDS011;13585;50.864;4.406;2022-12-18T23:59:41;6.15;;;4.82;;
